createdAt,value
2018-09-03T00:04:57.745Z,91.30
2018-09-03T00:12:24.681Z,91.70
2018-09-03T00:14:53.892Z,92.00
2018-09-03T00:17:23.228Z,91.60
2018-09-03T00:22:21.293Z,92.10
2018-09-03T00:24:50.525Z,92.10
2018-09-03T00:29:48.640Z,92.30
2018-09-03T00:34:57.612Z,92.50
2018-09-03T00:37:32.133Z,92.50
2018-09-03T00:40:06.600Z,92.70
2018-09-03T00:45:15.187Z,92.70
2018-09-03T00:47:44.428Z,92.80
2018-09-03T00:52:42.637Z,93.20
2018-09-03T00:55:11.893Z,93.20
2018-09-03T01:00:09.964Z,92.80
2018-09-03T01:02:39.212Z,92.80
2018-09-03T01:05:08.459Z,93.10
2018-09-03T01:07:37.767Z,93.20
2018-09-03T01:10:07.057Z,93.60
2018-09-03T01:12:36.326Z,93.60
2018-09-03T01:15:05.640Z,93.90
2018-09-03T01:20:03.750Z,93.50
2018-09-03T01:22:33.025Z,93.40
2018-09-03T01:25:02.418Z,93.50
2018-09-03T01:27:31.723Z,93.10
2018-09-03T01:32:29.800Z,92.70
2018-09-03T01:34:59.033Z,92.90
2018-09-03T01:37:28.371Z,93.20
2018-09-03T01:39:57.643Z,93.60
2018-09-03T01:44:55.816Z,93.40
2018-09-03T01:47:25.211Z,93.50
2018-09-03T01:49:54.545Z,93.20
2018-09-03T01:52:23.927Z,93.50
2018-09-03T01:59:50.872Z,93.70
2018-09-03T02:02:20.168Z,93.90
2018-09-03T02:04:49.421Z,93.70
2018-09-03T02:07:18.675Z,93.60
2018-09-03T02:12:16.784Z,94.50
2018-09-03T02:14:47.532Z,94.40
2018-09-03T02:17:16.889Z,94.70
2018-09-03T02:19:46.121Z,94.80
2018-09-03T02:22:15.364Z,94.50
2018-09-03T02:24:44.632Z,95.10
2018-09-03T02:27:13.877Z,95.00
2018-09-03T02:32:11.957Z,94.90
2018-09-03T02:34:41.256Z,95.20
2018-09-03T02:37:10.500Z,95.40
2018-09-03T02:39:39.743Z,95.20
2018-09-03T02:44:37.903Z,95.10
2018-09-03T02:47:07.336Z,95.40
2018-09-03T02:49:36.599Z,95.60
2018-09-03T02:54:34.732Z,95.50
2018-09-03T02:57:03.983Z,95.10
2018-09-03T02:59:33.251Z,95.10
2018-09-03T03:02:02.540Z,95.20
2018-09-03T03:04:31.804Z,95.20
2018-09-03T03:09:29.833Z,95.00
2018-09-03T03:11:59.063Z,95.10
2018-09-03T03:16:57.171Z,94.90
2018-09-03T03:19:26.512Z,95.00
2018-09-03T03:21:55.784Z,95.30
2018-09-03T03:24:25.047Z,95.30
2018-09-03T03:26:54.280Z,95.50
2018-09-03T03:29:23.536Z,95.60
2018-09-03T03:31:52.814Z,95.90
2018-09-03T03:34:22.038Z,95.90
2018-09-03T03:36:51.366Z,95.90
2018-09-03T03:39:20.691Z,95.80
2018-09-03T03:41:50.090Z,96.20
2018-09-03T03:46:48.255Z,96.30
2018-09-03T03:49:17.562Z,96.70
2018-09-03T03:51:46.813Z,96.70
2018-09-03T04:01:42.605Z,96.90
2018-09-03T04:04:11.896Z,97.10
2018-09-03T04:06:41.151Z,97.30
2018-09-03T04:11:40.895Z,96.90
2018-09-03T04:14:10.139Z,97.00
2018-09-03T04:16:39.456Z,96.80
2018-09-03T04:24:06.594Z,97.00
2018-09-03T04:26:35.865Z,97.10
2018-09-03T04:29:05.276Z,97.30
2018-09-03T04:31:34.605Z,97.00
2018-09-03T04:36:32.827Z,97.40
2018-09-03T04:39:02.119Z,97.20
2018-09-03T04:41:31.388Z,96.90
2018-09-03T04:44:00.725Z,97.10
2018-09-03T04:48:58.934Z,97.40
2018-09-03T04:51:28.245Z,97.50
2018-09-03T04:53:57.633Z,97.60
2018-09-03T05:01:25.684Z,97.70
2018-09-03T05:03:55.006Z,97.70
2018-09-03T05:06:24.340Z,97.40
2018-09-03T05:08:53.673Z,97.70
2018-09-03T05:11:23.005Z,97.50
2018-09-03T05:13:52.307Z,97.60
2018-09-03T05:16:21.621Z,97.90
2018-09-03T05:18:50.905Z,97.70
2018-09-03T05:26:17.952Z,97.90
2018-09-03T05:28:47.189Z,97.70
2018-09-03T05:31:16.496Z,97.80
2018-09-03T05:33:45.722Z,98.00
2018-09-03T05:38:43.969Z,98.00
2018-09-03T05:41:13.229Z,98.00
2018-09-03T05:43:42.790Z,97.80
2018-09-03T05:53:38.530Z,98.10
2018-09-03T05:56:07.886Z,98.10
2018-09-03T05:58:37.158Z,97.90
2018-09-03T06:01:06.505Z,97.80
2018-09-03T06:06:06.751Z,97.50
2018-09-03T06:08:36.024Z,97.60
2018-09-03T06:11:05.374Z,97.70
2018-09-03T06:13:34.587Z,97.90
2018-09-03T06:16:03.880Z,97.60
2018-09-03T06:18:33.183Z,97.70
2018-09-03T06:21:02.492Z,97.70
2018-09-03T06:23:31.756Z,97.80
2018-09-03T06:26:01.096Z,97.70
2018-09-03T06:30:59.135Z,97.70
2018-09-03T06:33:28.393Z,97.60
2018-09-03T06:35:57.752Z,97.40
2018-09-03T06:38:27.104Z,97.20
2018-09-03T06:45:54.220Z,97.30
2018-09-03T06:48:23.445Z,97.20
2018-09-03T06:50:52.734Z,97.20
2018-09-03T06:55:50.916Z,97.60
2018-09-03T07:00:49.115Z,97.70
2018-09-03T07:03:18.357Z,97.60
2018-09-03T07:05:47.683Z,97.40
2018-09-03T07:08:16.936Z,97.50
2018-09-03T07:10:46.206Z,97.90
2018-09-03T07:13:15.460Z,98.10
2018-09-03T07:15:44.686Z,98.00
2018-09-03T07:18:13.937Z,98.30
2018-09-03T07:20:43.163Z,98.20
2018-09-03T07:23:12.424Z,98.10
2018-09-03T07:30:39.593Z,97.70
2018-09-03T07:33:08.850Z,97.40
2018-09-03T07:35:38.078Z,97.50
2018-09-03T07:40:36.289Z,97.70
2018-09-03T07:43:05.755Z,97.90
2018-09-03T07:45:34.991Z,98.00
2018-09-03T07:48:04.513Z,98.00
2018-09-03T07:53:02.671Z,98.10
2018-09-03T07:55:31.906Z,98.20
2018-09-03T07:58:01.224Z,98.20
2018-09-03T08:00:30.456Z,98.50
2018-09-03T08:05:28.654Z,98.40
2018-09-03T08:07:58.222Z,98.40
2018-09-03T08:12:56.376Z,98.40
2018-09-03T08:17:54.550Z,98.00
2018-09-03T08:20:23.820Z,98.40
2018-09-03T08:22:53.053Z,98.60
2018-09-03T08:25:22.364Z,98.70
2018-09-03T08:30:20.543Z,98.70
2018-09-03T08:32:49.851Z,98.70
2018-09-03T08:35:19.075Z,99.00
2018-09-03T08:37:48.399Z,98.90
2018-09-03T08:42:46.497Z,99.10
2018-09-03T08:45:15.734Z,99.30
2018-09-03T08:47:45.036Z,99.10
2018-09-03T08:50:14.348Z,99.40
2018-09-03T08:52:43.572Z,99.30
2018-09-03T08:55:12.866Z,99.30
2018-09-03T08:57:42.153Z,99.50
2018-09-03T09:02:40.291Z,99.20
2018-09-03T09:05:09.606Z,99.00
2018-09-03T09:07:38.832Z,98.90
2018-09-03T09:12:38.525Z,99.70
2018-09-03T09:15:07.811Z,99.50
2018-09-03T09:17:37.179Z,99.60
2018-09-03T09:20:06.528Z,99.60
2018-09-03T09:25:04.995Z,99.60
2018-09-03T09:30:03.430Z,99.60
2018-09-03T09:32:32.802Z,99.80
2018-09-03T09:39:59.773Z,99.90
2018-09-03T09:42:29.077Z,99.70
2018-09-03T09:44:58.312Z,99.10
2018-09-03T09:47:27.561Z,98.50
2018-09-03T09:49:56.863Z,98.40
2018-09-03T09:52:26.092Z,98.60
2018-09-03T09:54:55.463Z,98.40
2018-09-03T09:57:24.758Z,98.40
2018-09-03T09:59:54.037Z,98.00
2018-09-03T10:02:23.265Z,97.20
2018-09-03T10:07:21.485Z,97.30
2018-09-03T10:09:50.748Z,97.60
2018-09-03T10:12:36.045Z,97.50
2018-09-03T10:15:05.358Z,97.60
2018-09-03T10:17:34.614Z,97.20
2018-09-03T10:20:03.992Z,97.10
2018-09-03T10:22:33.310Z,97.10
2018-09-03T10:27:31.509Z,97.10
2018-09-03T10:30:00.743Z,96.70
2018-09-03T10:32:31.096Z,97.10
2018-09-03T10:35:00.354Z,97.30
2018-09-03T10:37:29.612Z,96.90
2018-09-03T10:39:58.920Z,96.40
2018-09-03T10:42:28.693Z,96.30
2018-09-03T10:44:57.960Z,95.40
2018-09-03T10:52:24.864Z,95.50
2018-09-03T10:57:23.005Z,95.00
2018-09-03T11:02:21.140Z,95.10
2018-09-03T11:04:50.369Z,94.60
2018-09-03T11:09:48.444Z,94.00
2018-09-03T11:12:17.724Z,93.20
2018-09-03T11:14:46.980Z,93.50
2018-09-03T11:17:16.229Z,94.00
2018-09-03T11:19:49.875Z,93.90
2018-09-03T11:22:19.188Z,93.30
2018-09-03T11:27:17.244Z,93.80
2018-09-03T11:29:46.579Z,93.50
2018-09-03T11:32:15.860Z,93.70
2018-09-03T11:34:45.419Z,94.10
2018-09-03T11:37:14.736Z,93.90
2018-09-03T11:44:41.619Z,94.10
2018-09-03T11:47:10.918Z,94.40
2018-09-03T11:49:40.169Z,94.90
2018-09-03T11:52:09.445Z,95.20
2018-09-03T11:54:38.746Z,95.30
2018-09-03T11:59:38.968Z,94.50
2018-09-03T12:04:37.053Z,95.00
2018-09-03T12:07:06.652Z,94.70
2018-09-03T12:09:35.876Z,95.10
2018-09-03T12:12:05.172Z,95.20
2018-09-03T12:17:06.693Z,95.20
2018-09-03T12:19:35.978Z,94.80
2018-09-03T12:29:31.671Z,93.90
2018-09-03T12:32:01.189Z,93.20
2018-09-03T12:39:29.059Z,92.70
2018-09-03T12:44:27.155Z,93.20
2018-09-03T12:46:56.406Z,93.90
2018-09-03T12:51:54.477Z,94.30
2018-09-03T12:54:23.741Z,94.40
2018-09-03T12:56:53.074Z,94.20
2018-09-03T12:59:22.307Z,94.90
2018-09-03T13:04:20.456Z,95.50
2018-09-03T13:06:49.745Z,94.90
2018-09-03T13:09:19.031Z,95.20
2018-09-03T13:11:48.323Z,95.50
2018-09-03T13:16:46.418Z,96.70
2018-09-03T13:19:16.182Z,97.10
2018-09-03T13:24:14.260Z,96.40
2018-09-03T13:26:43.613Z,97.50
2018-09-03T13:29:12.871Z,96.70
2018-09-03T13:31:42.117Z,95.60
2018-09-03T13:34:11.554Z,95.00
2018-09-03T13:36:40.898Z,94.70
2018-09-03T13:41:39.887Z,93.80
2018-09-03T13:46:37.966Z,93.70
2018-09-03T13:49:07.241Z,93.90
2018-09-03T13:54:05.317Z,93.10
2018-09-03T13:56:34.663Z,93.40
2018-09-03T13:59:03.940Z,94.20
2018-09-03T14:04:03.477Z,93.30
2018-09-03T14:06:32.784Z,93.50
2018-09-03T14:09:02.052Z,93.50
2018-09-03T14:11:31.471Z,93.60
2018-09-03T14:16:29.616Z,93.70
2018-09-03T14:18:58.892Z,93.50
2018-09-03T14:21:28.160Z,93.40
2018-09-03T14:23:57.467Z,93.50
2018-09-03T14:28:55.688Z,94.30
2018-09-03T14:31:24.926Z,94.50
2018-09-03T14:36:23.556Z,94.70
2018-09-03T14:41:21.643Z,95.00
2018-09-03T14:43:50.950Z,95.10
2018-09-03T14:46:20.180Z,94.90
2018-09-03T14:48:49.483Z,95.00
2018-09-03T14:51:18.789Z,95.40
2018-09-03T14:53:48.080Z,95.50
2018-09-03T14:56:17.334Z,95.60
2018-09-03T14:58:46.617Z,94.70
2018-09-03T15:01:15.869Z,94.90
2018-09-03T15:08:44.308Z,96.40
2018-09-03T15:11:13.556Z,96.00
2018-09-03T15:13:42.797Z,97.00
2018-09-03T15:16:12.164Z,96.90
2018-09-03T15:18:41.431Z,98.00
2018-09-03T15:21:10.712Z,99.90
2018-09-03T15:23:39.931Z,99.90
2018-09-03T15:26:09.263Z,99.80
2018-09-03T15:28:38.460Z,99.80
2018-09-03T15:31:07.728Z,99.90
2018-09-03T15:33:37.020Z,99.90
2018-09-03T15:36:06.510Z,99.90
2018-09-03T15:41:04.869Z,99.80
2018-09-03T15:43:34.120Z,99.30
2018-09-03T15:46:03.403Z,99.20
2018-09-03T15:48:32.683Z,99.10
2018-09-03T15:53:30.812Z,99.30
2018-09-03T15:56:01.494Z,99.40
2018-09-03T15:58:31.171Z,98.80
2018-09-03T16:05:59.090Z,98.90
2018-09-03T16:08:28.357Z,99.20
2018-09-03T16:10:57.656Z,99.00
2018-09-03T16:13:26.877Z,99.00
2018-09-03T16:15:56.172Z,99.10
2018-09-03T16:18:25.477Z,99.30
2018-09-03T16:20:54.776Z,99.40
2018-09-03T16:23:24.011Z,99.50
2018-09-03T16:25:53.299Z,99.30
2018-09-03T16:28:22.538Z,99.80
2018-09-03T16:30:51.828Z,99.80
2018-09-03T16:33:21.142Z,99.60
2018-09-03T16:35:50.584Z,99.60
2018-09-03T16:38:19.815Z,99.70
2018-09-03T16:40:49.043Z,99.90
2018-09-03T16:43:18.323Z,99.90
2018-09-03T16:45:47.597Z,99.90
2018-09-03T16:50:45.703Z,99.90
2018-09-03T16:53:14.955Z,99.90
2018-09-03T16:55:44.264Z,99.90
2018-09-03T16:58:13.610Z,99.90
2018-09-03T17:03:11.729Z,99.90
2018-09-03T17:05:41.265Z,99.90
2018-09-03T17:08:10.711Z,99.90
2018-09-03T17:10:39.930Z,99.90
2018-09-03T17:15:38.040Z,99.90
2018-09-03T17:18:07.327Z,99.90
2018-09-03T17:20:36.609Z,99.90
2018-09-03T17:23:05.919Z,99.90
2018-09-03T17:28:04.030Z,99.90
2018-09-03T17:30:33.292Z,99.90
2018-09-03T17:33:02.543Z,99.90
2018-09-03T17:35:31.860Z,99.90
2018-09-03T17:40:29.956Z,99.90
2018-09-03T17:42:59.232Z,99.90
2018-09-03T17:47:57.458Z,99.90
2018-09-03T17:50:26.759Z,99.90
2018-09-03T17:55:24.901Z,99.90
2018-09-03T17:57:54.244Z,99.90
2018-09-03T18:00:23.631Z,99.90
2018-09-03T18:02:52.951Z,99.90
2018-09-03T18:05:22.371Z,99.90
2018-09-03T18:07:51.831Z,99.90
2018-09-03T18:10:23.375Z,99.90
2018-09-03T18:17:50.527Z,99.90
2018-09-03T18:20:19.896Z,99.90
2018-09-03T18:22:49.179Z,99.90
2018-09-03T18:25:18.529Z,99.90
2018-09-03T18:27:47.866Z,99.90
2018-09-03T18:35:15.074Z,99.90
2018-09-03T18:37:44.347Z,99.90
2018-09-03T18:42:42.658Z,99.90
2018-09-03T18:45:11.944Z,99.90
2018-09-03T18:47:41.309Z,99.90
2018-09-03T18:50:12.082Z,99.90
2018-09-03T18:52:41.410Z,99.90
2018-09-03T18:57:39.519Z,99.90
2018-09-03T19:00:09.044Z,99.90
2018-09-03T19:07:36.176Z,99.90
2018-09-03T19:10:05.531Z,99.90
2018-09-03T19:12:37.675Z,99.90
2018-09-03T19:15:07.720Z,99.90
2018-09-03T19:20:06.082Z,99.90
2018-09-03T19:22:35.374Z,99.90
2018-09-03T19:25:04.720Z,99.90
2018-09-03T19:30:02.855Z,99.90
2018-09-03T19:32:32.221Z,99.90
2018-09-03T19:37:30.424Z,99.90
2018-09-03T19:39:59.792Z,99.90
2018-09-03T19:44:57.897Z,99.90
2018-09-03T19:47:27.155Z,99.90
2018-09-03T19:49:56.456Z,99.90
2018-09-03T19:52:26.348Z,99.90
2018-09-03T19:54:55.617Z,99.90
2018-09-03T19:57:24.895Z,99.90
2018-09-03T19:59:54.206Z,99.90
2018-09-03T20:02:23.480Z,99.90
2018-09-03T20:04:52.714Z,99.90
2018-09-03T20:07:22.393Z,99.90
2018-09-03T20:09:51.620Z,99.90
2018-09-03T20:12:20.933Z,99.90
2018-09-03T20:14:52.217Z,99.90
2018-09-03T20:17:22.753Z,99.90
2018-09-03T20:19:52.553Z,99.90
2018-09-03T20:22:21.837Z,99.90
2018-09-03T20:24:51.093Z,99.90
2018-09-03T20:27:20.358Z,99.90
2018-09-03T20:29:49.623Z,99.90
2018-09-03T20:32:18.872Z,99.90
2018-09-03T20:34:48.101Z,99.90
2018-09-03T20:42:15.826Z,99.90
2018-09-03T20:44:45.368Z,99.90
2018-09-03T20:49:43.775Z,99.90
2018-09-03T20:54:42.125Z,99.90
2018-09-03T20:59:40.382Z,99.90
2018-09-03T21:02:09.757Z,99.90
2018-09-03T21:04:39.052Z,99.90
2018-09-03T21:12:07.193Z,99.90
2018-09-03T21:14:36.603Z,99.90
2018-09-03T21:17:08.824Z,99.90
2018-09-03T21:19:38.115Z,99.90
2018-09-03T21:22:07.417Z,99.90
2018-09-03T21:24:36.775Z,99.90
2018-09-03T21:27:06.145Z,99.90
2018-09-03T21:29:35.418Z,99.90
2018-09-03T21:34:33.597Z,99.90
2018-09-03T21:37:02.857Z,99.90
2018-09-03T21:39:32.242Z,99.90
2018-09-03T21:42:01.634Z,99.90
2018-09-03T21:44:30.976Z,99.90
2018-09-03T21:47:00.327Z,99.90
2018-09-03T21:49:29.720Z,99.90
2018-09-03T21:51:58.985Z,99.90
2018-09-03T21:54:28.326Z,99.90
2018-09-03T22:01:55.498Z,99.90
2018-09-03T22:04:24.871Z,99.90
2018-09-03T22:09:23.094Z,99.90
2018-09-03T22:11:52.429Z,99.90
2018-09-03T22:16:50.581Z,99.90
2018-09-03T22:19:22.041Z,99.90
2018-09-03T22:21:51.311Z,99.90
2018-09-03T22:26:49.893Z,99.90
2018-09-03T22:31:48.019Z,99.90
2018-09-03T22:36:46.139Z,99.90
2018-09-03T22:41:44.301Z,99.90
2018-09-03T22:46:42.460Z,99.90
2018-09-03T22:49:11.826Z,99.90
2018-09-03T22:51:41.652Z,99.90
2018-09-03T22:56:39.719Z,99.90
2018-09-03T22:59:08.983Z,99.90
2018-09-03T23:01:38.321Z,99.90
2018-09-03T23:06:36.425Z,99.90
2018-09-03T23:11:35.255Z,99.90
2018-09-03T23:16:33.414Z,99.90
2018-09-03T23:19:02.677Z,99.90
2018-09-03T23:24:01.373Z,99.90
2018-09-03T23:28:59.461Z,99.90
2018-09-03T23:31:28.769Z,99.90
2018-09-03T23:33:58.085Z,99.90
2018-09-03T23:41:24.993Z,99.90
2018-09-03T23:43:54.291Z,99.90
2018-09-03T23:46:23.584Z,99.90
2018-09-03T23:48:52.852Z,99.90
2018-09-03T23:53:50.924Z,99.90
2018-09-03T23:58:49.041Z,99.90
